Detall de PIREP

Printer-friendly versionPDF version

[2010/09/24 07:52:00]
Flight IATA:CT2113
Pilot Number:041
Company ICAO:CAT
Aircraft Type:B463/A
PAX:98
Departing Airport: LEZL
Destination Airport: LEVC
Alternate Airport:LEAL
Online: VATSIM
Route:MAR1R G5 BLN R47 YES B28 XEBAR B28 POBOS B28 ASTRO1J
Flight Level:FL220
No Slew and time accel
No pause
Crash detect
Detect pilot in Cockpit between each 30 and 45 minutes
07:52 Zero fuel Weight: 80519 Lbs, Fuel Weight: 8641 Lbs
07:52 VATSIM:LEZL 240730Z VRB01KT 0800 R27/0375V0800D FG VV001 17/17 Q1017 NOSIG
07:52 VATSIM:LEVC 240730Z 26006KT 230V300 CAVOK 22/15 Q1010 NOSIG
07:52 VOICE CATALONIAN
07:54 Parking Brakes off
08:08 Take-off
08:08 Take off Weight: 88632 Lbs
08:08 Wind: 084º @ 001 Knots Heading: 089º
08:08 POS N37º 25´ 04´´ W005º 53´ 41´´
08:08 Gear Up: 209 Knots
08:08 Flaps:1 at 209 Knots
08:08 Flaps:0 at 260 Knots
08:23 Wind:276º@053 Knots Heading: 113º Ground Speed: 383 Knots Altitude 17208 ft
08:26 TOC
08:26 Fuel Weight: 5937 Lb
08:38 Wind:291º@074 Knots Heading: 063º Ground Speed: 431 Knots Altitude 22132 ft
08:43 TOD
08:43 Fuel Weight: 4524 Lb
08:53 Wind:330º@029 Knots Heading: 046º Ground Speed: 279 Knots Altitude 8841 ft
09:06 Flaps:1 at 228 Knots
09:08 Wind:317º@020 Knots Heading: 130º Ground Speed: 209 Knots Altitude 5009 ft
09:17 Flaps:2 at 167 Knots
09:17 Gear Down: 168 Knots
09:19 Flaps:3 at 137 Knots
09:19 Flaps:4 at 135 Knots
09:20 TouchDown:Rate -82 ft/min Speed: 123 Knots
09:20 Flaps:0 at 109 Knots
09:21 VATSIM:LEVC 240900Z 24010KT 9999 FEW030 25/14 Q1011 NOSIG
09:21 Land
09:21 Wind:243º@010 Knots
09:21 Heading: 294º
09:21 Flight Duration: 01:13
09:21 Landing Weight: 83063 Lbs
09:21 POS N39º 29´ 19´´ W000º 28´ 47´´
09:24 Parking brakes on
09:24 Block to Block Duration: 01:30
09:24 Final Fuel: 2433 Lbls
09:24 Spent Fuel: 6208 Lbls
09:24 Flight Length: 358 NM
09:24 TOD Land Length: 153 NM

Exportar CSV

Powered by Drupal - Modified by Danger4k